sensor_id;sensor_type;location;lat;lon;timestamp;temperature;humidity
53294;DHT22;39181;53.440;5.644;2022-08-25T00:01:15;21.10;99.90
53294;DHT22;39181;53.440;5.644;2022-08-25T00:03:41;21.10;99.90
53294;DHT22;39181;53.440;5.644;2022-08-25T00:06:08;21.10;99.90
53294;DHT22;39181;53.440;5.644;2022-08-25T00:08:34;21.10;99.90
53294;DHT22;39181;53.440;5.644;2022-08-25T00:11:06;21.10;99.90
53294;DHT22;39181;53.440;5.644;2022-08-25T00:13:32;21.10;99.90
53294;DHT22;39181;53.440;5.644;2022-08-25T00:15:58;21.20;99.90
53294;DHT22;39181;53.440;5.644;2022-08-25T00:18:24;21.10;99.90
53294;DHT22;39181;53.440;5.644;2022-08-25T00:20:50;21.10;99.90
53294;DHT22;39181;53.440;5.644;2022-08-25T00:23:16;21.10;99.90
53294;DHT22;39181;53.440;5.644;2022-08-25T00:25:42;21.00;99.90
53294;DHT22;39181;53.440;5.644;2022-08-25T00:28:08;21.00;99.90
53294;DHT22;39181;53.440;5.644;2022-08-25T00:30:34;21.00;99.90
53294;DHT22;39181;53.440;5.644;2022-08-25T00:33:01;21.00;99.90
53294;DHT22;39181;53.440;5.644;2022-08-25T00:35:28;21.00;99.90
53294;DHT22;39181;53.440;5.644;2022-08-25T00:37:54;20.90;99.90
53294;DHT22;39181;53.440;5.644;2022-08-25T00:40:19;20.90;99.90
53294;DHT22;39181;53.440;5.644;2022-08-25T00:42:45;20.80;99.90
53294;DHT22;39181;53.440;5.644;2022-08-25T00:45:11;20.80;99.90
53294;DHT22;39181;53.440;5.644;2022-08-25T00:47:36;20.80;99.90
53294;DHT22;39181;53.440;5.644;2022-08-25T00:50:05;20.70;99.90
53294;DHT22;39181;53.440;5.644;2022-08-25T00:52:36;20.70;99.90
53294;DHT22;39181;53.440;5.644;2022-08-25T00:55:15;20.60;99.90
53294;DHT22;39181;53.440;5.644;2022-08-25T00:57:46;20.60;99.90
53294;DHT22;39181;53.440;5.644;2022-08-25T01:00:16;20.50;99.90
53294;DHT22;39181;53.440;5.644;2022-08-25T01:02:44;20.50;99.90
53294;DHT22;39181;53.440;5.644;2022-08-25T01:05:10;20.50;99.90
53294;DHT22;39181;53.440;5.644;2022-08-25T01:07:37;20.40;99.90
53294;DHT22;39181;53.440;5.644;2022-08-25T01:10:04;20.30;99.90
53294;DHT22;39181;53.440;5.644;2022-08-25T01:12:32;20.20;99.90
53294;DHT22;39181;53.440;5.644;2022-08-25T01:15:00;20.20;99.90
53294;DHT22;39181;53.440;5.644;2022-08-25T01:17:43;20.20;99.90
53294;DHT22;39181;53.440;5.644;2022-08-25T01:20:09;20.10;99.90
53294;DHT22;39181;53.440;5.644;2022-08-25T01:22:35;20.10;99.90
53294;DHT22;39181;53.440;5.644;2022-08-25T01:25:06;20.00;99.90
53294;DHT22;39181;53.440;5.644;2022-08-25T01:27:37;20.00;99.90
53294;DHT22;39181;53.440;5.644;2022-08-25T01:30:03;20.00;99.90
53294;DHT22;39181;53.440;5.644;2022-08-25T01:32:32;20.00;99.90
53294;DHT22;39181;53.440;5.644;2022-08-25T01:34:58;20.00;99.90
53294;DHT22;39181;53.440;5.644;2022-08-25T01:37:24;20.00;99.90
53294;DHT22;39181;53.440;5.644;2022-08-25T01:39:49;20.00;99.90
53294;DHT22;39181;53.440;5.644;2022-08-25T01:45:02;20.00;99.90
53294;DHT22;39181;53.440;5.644;2022-08-25T01:47:28;19.90;99.90
53294;DHT22;39181;53.440;5.644;2022-08-25T01:49:54;19.90;99.90
53294;DHT22;39181;53.440;5.644;2022-08-25T01:52:27;19.90;99.90
53294;DHT22;39181;53.440;5.644;2022-08-25T01:54:53;19.80;99.90
53294;DHT22;39181;53.440;5.644;2022-08-25T01:57:19;19.80;99.90
53294;DHT22;39181;53.440;5.644;2022-08-25T01:59:45;19.80;99.90
53294;DHT22;39181;53.440;5.644;2022-08-25T02:02:10;19.80;99.90
53294;DHT22;39181;53.440;5.644;2022-08-25T02:04:36;19.80;99.90
53294;DHT22;39181;53.440;5.644;2022-08-25T02:07:05;19.70;99.90
53294;DHT22;39181;53.440;5.644;2022-08-25T02:09:31;19.70;99.90
53294;DHT22;39181;53.440;5.644;2022-08-25T02:11:57;19.70;99.90
53294;DHT22;39181;53.440;5.644;2022-08-25T02:14:23;19.60;99.90
53294;DHT22;39181;53.440;5.644;2022-08-25T02:16:51;19.60;99.90
53294;DHT22;39181;53.440;5.644;2022-08-25T02:19:18;19.50;99.90
53294;DHT22;39181;53.440;5.644;2022-08-25T02:21:43;19.40;99.90
53294;DHT22;39181;53.440;5.644;2022-08-25T02:24:10;19.40;99.90
53294;DHT22;39181;53.440;5.644;2022-08-25T02:26:36;19.40;99.90
53294;DHT22;39181;53.440;5.644;2022-08-25T02:29:03;19.30;99.90
53294;DHT22;39181;53.440;5.644;2022-08-25T02:31:29;19.30;99.90
53294;DHT22;39181;53.440;5.644;2022-08-25T02:33:55;19.20;99.90
53294;DHT22;39181;53.440;5.644;2022-08-25T02:36:21;19.20;99.90
53294;DHT22;39181;53.440;5.644;2022-08-25T02:38:47;19.10;99.90
53294;DHT22;39181;53.440;5.644;2022-08-25T02:41:18;19.10;99.90
53294;DHT22;39181;53.440;5.644;2022-08-25T02:43:46;19.10;99.90
53294;DHT22;39181;53.440;5.644;2022-08-25T02:46:13;19.10;99.90
53294;DHT22;39181;53.440;5.644;2022-08-25T02:48:39;19.00;99.90
53294;DHT22;39181;53.440;5.644;2022-08-25T02:51:05;19.00;99.90
53294;DHT22;39181;53.440;5.644;2022-08-25T02:53:32;19.00;99.90
53294;DHT22;39181;53.440;5.644;2022-08-25T02:55:58;18.90;99.90
53294;DHT22;39181;53.440;5.644;2022-08-25T02:58:24;18.80;99.90
53294;DHT22;39181;53.440;5.644;2022-08-25T03:00:51;18.80;99.90
53294;DHT22;39181;53.440;5.644;2022-08-25T03:03:17;18.70;99.90
53294;DHT22;39181;53.440;5.644;2022-08-25T03:05:44;18.70;99.90
53294;DHT22;39181;53.440;5.644;2022-08-25T03:08:09;18.70;99.90
53294;DHT22;39181;53.440;5.644;2022-08-25T03:10:35;18.60;99.90
53294;DHT22;39181;53.440;5.644;2022-08-25T03:13:01;18.60;99.90
53294;DHT22;39181;53.440;5.644;2022-08-25T03:15:27;18.50;99.90
53294;DHT22;39181;53.440;5.644;2022-08-25T03:17:54;18.50;99.90
53294;DHT22;39181;53.440;5.644;2022-08-25T03:20:21;18.50;99.90
53294;DHT22;39181;53.440;5.644;2022-08-25T03:22:47;18.40;99.90
53294;DHT22;39181;53.440;5.644;2022-08-25T03:25:13;18.40;99.90
53294;DHT22;39181;53.440;5.644;2022-08-25T03:27:57;18.40;99.90
53294;DHT22;39181;53.440;5.644;2022-08-25T03:30:23;18.40;99.90
53294;DHT22;39181;53.440;5.644;2022-08-25T03:32:50;18.30;99.90
53294;DHT22;39181;53.440;5.644;2022-08-25T03:35:16;18.30;99.90
53294;DHT22;39181;53.440;5.644;2022-08-25T03:37:41;18.30;99.90
53294;DHT22;39181;53.440;5.644;2022-08-25T03:40:09;18.20;99.90
53294;DHT22;39181;53.440;5.644;2022-08-25T03:42:39;18.20;99.90
53294;DHT22;39181;53.440;5.644;2022-08-25T03:45:06;18.10;99.90
53294;DHT22;39181;53.440;5.644;2022-08-25T03:47:32;18.10;99.90
53294;DHT22;39181;53.440;5.644;2022-08-25T03:49:58;18.10;99.90
53294;DHT22;39181;53.440;5.644;2022-08-25T03:52:24;18.00;99.90
53294;DHT22;39181;53.440;5.644;2022-08-25T03:54:50;18.00;99.90
53294;DHT22;39181;53.440;5.644;2022-08-25T03:57:15;18.00;99.90
53294;DHT22;39181;53.440;5.644;2022-08-25T03:59:41;18.00;99.90
53294;DHT22;39181;53.440;5.644;2022-08-25T04:02:07;17.90;99.90
53294;DHT22;39181;53.440;5.644;2022-08-25T04:04:33;18.00;99.90
53294;DHT22;39181;53.440;5.644;2022-08-25T04:06:59;17.90;99.90
53294;DHT22;39181;53.440;5.644;2022-08-25T04:09:25;17.90;99.90
53294;DHT22;39181;53.440;5.644;2022-08-25T04:11:50;17.90;99.90
53294;DHT22;39181;53.440;5.644;2022-08-25T04:14:16;17.90;99.90
53294;DHT22;39181;53.440;5.644;2022-08-25T04:16:43;17.80;99.90
53294;DHT22;39181;53.440;5.644;2022-08-25T04:19:09;17.80;99.90
53294;DHT22;39181;53.440;5.644;2022-08-25T04:21:38;17.90;99.90
53294;DHT22;39181;53.440;5.644;2022-08-25T04:24:07;17.80;99.90
53294;DHT22;39181;53.440;5.644;2022-08-25T04:26:37;17.80;99.90
53294;DHT22;39181;53.440;5.644;2022-08-25T04:29:03;17.80;99.90
53294;DHT22;39181;53.440;5.644;2022-08-25T04:31:30;17.80;99.90
53294;DHT22;39181;53.440;5.644;2022-08-25T04:33:56;17.70;99.90
53294;DHT22;39181;53.440;5.644;2022-08-25T04:36:22;17.70;99.90
53294;DHT22;39181;53.440;5.644;2022-08-25T04:38:49;17.70;99.90
53294;DHT22;39181;53.440;5.644;2022-08-25T04:41:17;17.70;99.90
53294;DHT22;39181;53.440;5.644;2022-08-25T04:43:43;17.70;99.90
53294;DHT22;39181;53.440;5.644;2022-08-25T04:46:21;17.70;99.90
53294;DHT22;39181;53.440;5.644;2022-08-25T04:48:49;17.70;99.90
53294;DHT22;39181;53.440;5.644;2022-08-25T04:51:27;17.70;99.90
53294;DHT22;39181;53.440;5.644;2022-08-25T04:53:54;17.70;99.90
53294;DHT22;39181;53.440;5.644;2022-08-25T04:56:22;17.70;99.90
53294;DHT22;39181;53.440;5.644;2022-08-25T04:58:52;17.70;99.90
53294;DHT22;39181;53.440;5.644;2022-08-25T05:01:21;17.70;99.90
53294;DHT22;39181;53.440;5.644;2022-08-25T05:03:55;17.80;99.90
53294;DHT22;39181;53.440;5.644;2022-08-25T05:06:21;17.80;99.90
53294;DHT22;39181;53.440;5.644;2022-08-25T05:08:46;17.90;99.90
53294;DHT22;39181;53.440;5.644;2022-08-25T05:11:14;17.90;99.90
53294;DHT22;39181;53.440;5.644;2022-08-25T05:13:42;17.90;99.90
53294;DHT22;39181;53.440;5.644;2022-08-25T05:16:08;18.00;99.90
53294;DHT22;39181;53.440;5.644;2022-08-25T05:18:34;18.10;99.90
53294;DHT22;39181;53.440;5.644;2022-08-25T05:21:05;18.10;99.90
53294;DHT22;39181;53.440;5.644;2022-08-25T05:23:31;18.20;99.90
53294;DHT22;39181;53.440;5.644;2022-08-25T05:26:05;18.20;99.90
53294;DHT22;39181;53.440;5.644;2022-08-25T05:28:31;18.30;99.90
53294;DHT22;39181;53.440;5.644;2022-08-25T05:30:59;18.40;99.90
53294;DHT22;39181;53.440;5.644;2022-08-25T05:33:25;18.50;99.90
53294;DHT22;39181;53.440;5.644;2022-08-25T05:35:50;18.50;99.90
53294;DHT22;39181;53.440;5.644;2022-08-25T05:38:16;18.60;99.90
53294;DHT22;39181;53.440;5.644;2022-08-25T05:40:42;18.70;99.90
53294;DHT22;39181;53.440;5.644;2022-08-25T05:43:08;18.70;99.90
53294;DHT22;39181;53.440;5.644;2022-08-25T05:45:34;18.80;99.90
53294;DHT22;39181;53.440;5.644;2022-08-25T05:48:00;18.90;99.90
53294;DHT22;39181;53.440;5.644;2022-08-25T05:50:26;19.00;99.90
53294;DHT22;39181;53.440;5.644;2022-08-25T05:52:52;19.10;99.90
53294;DHT22;39181;53.440;5.644;2022-08-25T05:55:17;19.20;99.90
53294;DHT22;39181;53.440;5.644;2022-08-25T05:57:43;19.20;99.90
53294;DHT22;39181;53.440;5.644;2022-08-25T06:00:09;19.30;99.90
53294;DHT22;39181;53.440;5.644;2022-08-25T06:02:36;19.40;99.90
53294;DHT22;39181;53.440;5.644;2022-08-25T06:05:13;19.40;99.90
53294;DHT22;39181;53.440;5.644;2022-08-25T06:07:39;19.50;99.90
53294;DHT22;39181;53.440;5.644;2022-08-25T06:10:06;19.60;99.90
53294;DHT22;39181;53.440;5.644;2022-08-25T06:12:35;19.60;99.90
53294;DHT22;39181;53.440;5.644;2022-08-25T06:15:01;19.80;99.90
53294;DHT22;39181;53.440;5.644;2022-08-25T06:17:27;19.80;99.90
53294;DHT22;39181;53.440;5.644;2022-08-25T06:19:53;19.90;99.90
53294;DHT22;39181;53.440;5.644;2022-08-25T06:22:19;20.00;99.90
53294;DHT22;39181;53.440;5.644;2022-08-25T06:24:46;20.10;99.90
53294;DHT22;39181;53.440;5.644;2022-08-25T06:27:12;20.10;99.90
53294;DHT22;39181;53.440;5.644;2022-08-25T06:29:38;20.10;99.90
53294;DHT22;39181;53.440;5.644;2022-08-25T06:32:04;20.20;99.90
53294;DHT22;39181;53.440;5.644;2022-08-25T06:34:29;20.30;99.90
53294;DHT22;39181;53.440;5.644;2022-08-25T06:36:55;20.30;99.90
53294;DHT22;39181;53.440;5.644;2022-08-25T06:39:21;20.40;99.90
53294;DHT22;39181;53.440;5.644;2022-08-25T06:41:55;20.40;99.90
53294;DHT22;39181;53.440;5.644;2022-08-25T06:44:22;20.50;99.90
53294;DHT22;39181;53.440;5.644;2022-08-25T06:46:49;20.60;99.90
53294;DHT22;39181;53.440;5.644;2022-08-25T06:49:15;20.60;99.90
53294;DHT22;39181;53.440;5.644;2022-08-25T06:51:41;20.70;99.90
53294;DHT22;39181;53.440;5.644;2022-08-25T06:54:08;20.70;99.90
53294;DHT22;39181;53.440;5.644;2022-08-25T06:56:39;20.80;99.90
53294;DHT22;39181;53.440;5.644;2022-08-25T06:59:06;20.90;99.90
53294;DHT22;39181;53.440;5.644;2022-08-25T07:01:32;21.00;99.90
53294;DHT22;39181;53.440;5.644;2022-08-25T07:04:00;21.00;99.90
53294;DHT22;39181;53.440;5.644;2022-08-25T07:06:28;21.10;99.90
53294;DHT22;39181;53.440;5.644;2022-08-25T07:08:56;21.20;99.90
53294;DHT22;39181;53.440;5.644;2022-08-25T07:11:22;21.40;99.90
53294;DHT22;39181;53.440;5.644;2022-08-25T07:13:48;21.40;99.90
53294;DHT22;39181;53.440;5.644;2022-08-25T07:16:15;21.50;99.90
53294;DHT22;39181;53.440;5.644;2022-08-25T07:18:41;21.50;99.90
53294;DHT22;39181;53.440;5.644;2022-08-25T07:21:07;21.70;99.90
53294;DHT22;39181;53.440;5.644;2022-08-25T07:23:32;21.80;99.90
53294;DHT22;39181;53.440;5.644;2022-08-25T07:26:25;21.80;99.90
53294;DHT22;39181;53.440;5.644;2022-08-25T07:28:52;21.90;99.90
53294;DHT22;39181;53.440;5.644;2022-08-25T07:31:17;22.10;99.90
53294;DHT22;39181;53.440;5.644;2022-08-25T07:33:43;22.20;99.90
53294;DHT22;39181;53.440;5.644;2022-08-25T07:36:27;22.30;99.90
53294;DHT22;39181;53.440;5.644;2022-08-25T07:38:53;22.50;99.90
53294;DHT22;39181;53.440;5.644;2022-08-25T07:41:18;22.60;99.90
53294;DHT22;39181;53.440;5.644;2022-08-25T07:43:44;22.70;99.90
53294;DHT22;39181;53.440;5.644;2022-08-25T07:46:10;22.90;99.90
53294;DHT22;39181;53.440;5.644;2022-08-25T07:48:35;23.10;99.90
53294;DHT22;39181;53.440;5.644;2022-08-25T07:51:07;23.20;99.90
53294;DHT22;39181;53.440;5.644;2022-08-25T07:53:33;23.30;99.90
53294;DHT22;39181;53.440;5.644;2022-08-25T07:55:58;23.50;99.90
53294;DHT22;39181;53.440;5.644;2022-08-25T07:58:24;23.60;99.90
53294;DHT22;39181;53.440;5.644;2022-08-25T08:00:50;23.90;99.90
53294;DHT22;39181;53.440;5.644;2022-08-25T08:03:18;24.00;99.90
53294;DHT22;39181;53.440;5.644;2022-08-25T08:05:45;24.20;99.90
53294;DHT22;39181;53.440;5.644;2022-08-25T08:08:11;24.30;99.90
53294;DHT22;39181;53.440;5.644;2022-08-25T08:10:40;24.50;99.90
53294;DHT22;39181;53.440;5.644;2022-08-25T08:13:06;24.60;99.90
53294;DHT22;39181;53.440;5.644;2022-08-25T08:15:32;24.80;99.90
53294;DHT22;39181;53.440;5.644;2022-08-25T08:17:58;24.90;99.90
53294;DHT22;39181;53.440;5.644;2022-08-25T08:20:24;25.00;99.90
53294;DHT22;39181;53.440;5.644;2022-08-25T08:22:50;25.10;99.90
53294;DHT22;39181;53.440;5.644;2022-08-25T08:25:16;25.30;99.90
53294;DHT22;39181;53.440;5.644;2022-08-25T08:27:41;25.30;99.90
53294;DHT22;39181;53.440;5.644;2022-08-25T08:30:07;25.40;99.90
53294;DHT22;39181;53.440;5.644;2022-08-25T08:32:34;25.60;99.90
53294;DHT22;39181;53.440;5.644;2022-08-25T08:35:00;25.60;99.90
53294;DHT22;39181;53.440;5.644;2022-08-25T08:37:26;25.70;99.90
53294;DHT22;39181;53.440;5.644;2022-08-25T08:39:52;25.80;99.90
53294;DHT22;39181;53.440;5.644;2022-08-25T08:50:23;26.40;99.90
53294;DHT22;39181;53.440;5.644;2022-08-25T08:55:42;26.50;99.90
53294;DHT22;39181;53.440;5.644;2022-08-25T08:58:40;26.70;99.90
53294;DHT22;39181;53.440;5.644;2022-08-25T09:01:09;26.70;99.90
53294;DHT22;39181;53.440;5.644;2022-08-25T09:03:42;26.90;99.90
53294;DHT22;39181;53.440;5.644;2022-08-25T09:06:27;27.00;99.90
53294;DHT22;39181;53.440;5.644;2022-08-25T09:08:57;27.20;99.90
53294;DHT22;39181;53.440;5.644;2022-08-25T09:11:43;27.40;99.90
53294;DHT22;39181;53.440;5.644;2022-08-25T09:14:29;27.50;99.90
53294;DHT22;39181;53.440;5.644;2022-08-25T09:17:18;27.60;99.90
53294;DHT22;39181;53.440;5.644;2022-08-25T09:20:10;27.70;99.90
53294;DHT22;39181;53.440;5.644;2022-08-25T09:22:54;27.80;99.90
53294;DHT22;39181;53.440;5.644;2022-08-25T09:33:40;28.10;99.90
53294;DHT22;39181;53.440;5.644;2022-08-25T09:36:06;28.20;99.90
53294;DHT22;39181;53.440;5.644;2022-08-25T09:38:32;28.30;99.90
53294;DHT22;39181;53.440;5.644;2022-08-25T09:40:59;28.40;99.90
53294;DHT22;39181;53.440;5.644;2022-08-25T09:43:29;28.50;99.90
53294;DHT22;39181;53.440;5.644;2022-08-25T09:46:22;28.60;99.90
53294;DHT22;39181;53.440;5.644;2022-08-25T09:48:50;28.90;99.90
53294;DHT22;39181;53.440;5.644;2022-08-25T09:51:28;29.00;99.90
53294;DHT22;39181;53.440;5.644;2022-08-25T09:56:23;29.20;99.90
53294;DHT22;39181;53.440;5.644;2022-08-25T09:58:50;29.40;99.90
53294;DHT22;39181;53.440;5.644;2022-08-25T10:01:21;29.40;99.90
53294;DHT22;39181;53.440;5.644;2022-08-25T10:03:55;29.50;99.90
53294;DHT22;39181;53.440;5.644;2022-08-25T10:06:21;29.50;99.90
53294;DHT22;39181;53.440;5.644;2022-08-25T10:11:28;29.70;99.90
53294;DHT22;39181;53.440;5.644;2022-08-25T10:14:42;29.80;99.90
53294;DHT22;39181;53.440;5.644;2022-08-25T10:17:26;29.90;99.90
53294;DHT22;39181;53.440;5.644;2022-08-25T10:19:54;30.00;99.90
53294;DHT22;39181;53.440;5.644;2022-08-25T10:22:37;30.30;99.90
53294;DHT22;39181;53.440;5.644;2022-08-25T10:25:05;30.30;99.90
53294;DHT22;39181;53.440;5.644;2022-08-25T10:30:50;30.60;99.90
53294;DHT22;39181;53.440;5.644;2022-08-25T10:38:44;30.80;99.90
53294;DHT22;39181;53.440;5.644;2022-08-25T10:44:38;31.00;99.90
53294;DHT22;39181;53.440;5.644;2022-08-25T10:50:16;31.20;99.90
53294;DHT22;39181;53.440;5.644;2022-08-25T11:01:12;31.50;99.90
53294;DHT22;39181;53.440;5.644;2022-08-25T11:03:57;31.40;99.90
53294;DHT22;39181;53.440;5.644;2022-08-25T11:09:03;31.60;99.90
53294;DHT22;39181;53.440;5.644;2022-08-25T11:14:11;31.70;99.90
53294;DHT22;39181;53.440;5.644;2022-08-25T11:16:44;31.80;99.90
53294;DHT22;39181;53.440;5.644;2022-08-25T11:22:13;31.80;99.90
53294;DHT22;39181;53.440;5.644;2022-08-25T11:25:34;31.80;99.00
53294;DHT22;39181;53.440;5.644;2022-08-25T11:27:43;31.80;98.10
53294;DHT22;39181;53.440;5.644;2022-08-25T11:30:13;31.90;98.80
53294;DHT22;39181;53.440;5.644;2022-08-25T11:32:39;31.80;99.30
53294;DHT22;39181;53.440;5.644;2022-08-25T11:35:11;31.80;99.90
53294;DHT22;39181;53.440;5.644;2022-08-25T11:45:53;32.00;98.10
53294;DHT22;39181;53.440;5.644;2022-08-25T11:51:31;32.00;98.20
53294;DHT22;39181;53.440;5.644;2022-08-25T11:56:42;32.00;97.60
53294;DHT22;39181;53.440;5.644;2022-08-25T12:02:39;32.20;98.20
53294;DHT22;39181;53.440;5.644;2022-08-25T12:05:48;32.20;99.40
53294;DHT22;39181;53.440;5.644;2022-08-25T12:11:01;32.20;99.40
53294;DHT22;39181;53.440;5.644;2022-08-25T12:16:05;31.90;97.90
53294;DHT22;39181;53.440;5.644;2022-08-25T12:26:40;31.90;98.30
53294;DHT22;39181;53.440;5.644;2022-08-25T12:29:15;32.00;99.90
53294;DHT22;39181;53.440;5.644;2022-08-25T12:37:17;31.90;98.30
53294;DHT22;39181;53.440;5.644;2022-08-25T12:42:37;32.10;98.50
53294;DHT22;39181;53.440;5.644;2022-08-25T12:47:47;32.00;97.40
53294;DHT22;39181;53.440;5.644;2022-08-25T12:50:37;32.10;98.90
53294;DHT22;39181;53.440;5.644;2022-08-25T12:53:13;32.00;97.00
53294;DHT22;39181;53.440;5.644;2022-08-25T12:55:45;31.80;97.20
53294;DHT22;39181;53.440;5.644;2022-08-25T12:58:12;31.90;98.90
53294;DHT22;39181;53.440;5.644;2022-08-25T13:01:05;31.90;98.90
53294;DHT22;39181;53.440;5.644;2022-08-25T13:03:59;31.90;97.60
53294;DHT22;39181;53.440;5.644;2022-08-25T13:09:18;31.90;98.40
53294;DHT22;39181;53.440;5.644;2022-08-25T13:11:59;31.90;98.30
53294;DHT22;39181;53.440;5.644;2022-08-25T13:14:40;31.90;97.70
53294;DHT22;39181;53.440;5.644;2022-08-25T13:17:07;31.80;96.90
53294;DHT22;39181;53.440;5.644;2022-08-25T13:19:33;31.80;97.10
53294;DHT22;39181;53.440;5.644;2022-08-25T13:22:02;31.70;97.40
53294;DHT22;39181;53.440;5.644;2022-08-25T13:24:31;31.80;99.30
53294;DHT22;39181;53.440;5.644;2022-08-25T13:27:05;31.70;98.40
53294;DHT22;39181;53.440;5.644;2022-08-25T13:29:35;31.60;95.90
53294;DHT22;39181;53.440;5.644;2022-08-25T13:32:03;31.50;96.50
53294;DHT22;39181;53.440;5.644;2022-08-25T13:34:35;31.50;97.20
53294;DHT22;39181;53.440;5.644;2022-08-25T13:37:09;31.50;97.30
53294;DHT22;39181;53.440;5.644;2022-08-25T13:40:24;31.60;96.50
53294;DHT22;39181;53.440;5.644;2022-08-25T13:43:05;31.50;97.90
53294;DHT22;39181;53.440;5.644;2022-08-25T13:45:36;31.50;96.40
53294;DHT22;39181;53.440;5.644;2022-08-25T13:48:02;31.30;95.60
53294;DHT22;39181;53.440;5.644;2022-08-25T13:50:30;31.30;96.30
53294;DHT22;39181;53.440;5.644;2022-08-25T13:55:35;31.30;96.70
53294;DHT22;39181;53.440;5.644;2022-08-25T13:58:03;31.30;95.70
53294;DHT22;39181;53.440;5.644;2022-08-25T14:00:40;31.20;96.80
53294;DHT22;39181;53.440;5.644;2022-08-25T14:03:28;31.20;97.20
53294;DHT22;39181;53.440;5.644;2022-08-25T14:08:36;31.20;97.20
53294;DHT22;39181;53.440;5.644;2022-08-25T14:11:15;31.20;97.30
53294;DHT22;39181;53.440;5.644;2022-08-25T14:16:57;31.20;96.50
53294;DHT22;39181;53.440;5.644;2022-08-25T14:19:23;31.20;96.50
53294;DHT22;39181;53.440;5.644;2022-08-25T14:21:49;31.10;97.00
53294;DHT22;39181;53.440;5.644;2022-08-25T14:24:21;31.10;97.20
53294;DHT22;39181;53.440;5.644;2022-08-25T14:26:47;31.10;97.40
53294;DHT22;39181;53.440;5.644;2022-08-25T14:29:14;31.10;96.90
53294;DHT22;39181;53.440;5.644;2022-08-25T14:31:42;31.10;97.30
53294;DHT22;39181;53.440;5.644;2022-08-25T14:34:13;31.00;97.70
53294;DHT22;39181;53.440;5.644;2022-08-25T14:36:39;31.10;98.60
53294;DHT22;39181;53.440;5.644;2022-08-25T14:39:05;31.00;97.80
53294;DHT22;39181;53.440;5.644;2022-08-25T14:41:34;31.10;98.00
53294;DHT22;39181;53.440;5.644;2022-08-25T14:44:00;31.10;97.80
53294;DHT22;39181;53.440;5.644;2022-08-25T14:46:29;31.00;97.20
53294;DHT22;39181;53.440;5.644;2022-08-25T14:49:00;31.00;97.70
53294;DHT22;39181;53.440;5.644;2022-08-25T14:51:28;31.00;96.30
53294;DHT22;39181;53.440;5.644;2022-08-25T14:53:57;31.00;97.10
53294;DHT22;39181;53.440;5.644;2022-08-25T14:56:23;30.90;96.50
53294;DHT22;39181;53.440;5.644;2022-08-25T14:58:49;31.00;97.10
53294;DHT22;39181;53.440;5.644;2022-08-25T15:01:16;30.90;96.60
53294;DHT22;39181;53.440;5.644;2022-08-25T15:03:44;31.00;97.10
53294;DHT22;39181;53.440;5.644;2022-08-25T15:06:12;30.90;96.80
53294;DHT22;39181;53.440;5.644;2022-08-25T15:08:38;30.90;96.30
53294;DHT22;39181;53.440;5.644;2022-08-25T15:11:23;30.90;96.00
53294;DHT22;39181;53.440;5.644;2022-08-25T15:13:48;30.80;97.20
53294;DHT22;39181;53.440;5.644;2022-08-25T15:16:21;30.90;98.00
53294;DHT22;39181;53.440;5.644;2022-08-25T15:18:47;30.90;96.60
53294;DHT22;39181;53.440;5.644;2022-08-25T15:21:14;30.90;96.60
53294;DHT22;39181;53.440;5.644;2022-08-25T15:23:39;30.80;96.10
53294;DHT22;39181;53.440;5.644;2022-08-25T15:26:08;30.80;96.10
53294;DHT22;39181;53.440;5.644;2022-08-25T15:28:38;30.80;95.60
53294;DHT22;39181;53.440;5.644;2022-08-25T15:31:06;30.80;96.20
53294;DHT22;39181;53.440;5.644;2022-08-25T15:33:31;30.80;97.00
53294;DHT22;39181;53.440;5.644;2022-08-25T15:35:57;30.80;97.20
53294;DHT22;39181;53.440;5.644;2022-08-25T15:38:23;30.70;96.60
53294;DHT22;39181;53.440;5.644;2022-08-25T15:40:49;30.70;97.00
53294;DHT22;39181;53.440;5.644;2022-08-25T15:43:15;30.70;97.00
53294;DHT22;39181;53.440;5.644;2022-08-25T15:45:41;30.60;97.40
53294;DHT22;39181;53.440;5.644;2022-08-25T15:48:07;30.50;97.30
53294;DHT22;39181;53.440;5.644;2022-08-25T15:50:32;30.50;97.60
53294;DHT22;39181;53.440;5.644;2022-08-25T15:52:58;30.50;98.20
53294;DHT22;39181;53.440;5.644;2022-08-25T15:55:24;30.50;98.50
53294;DHT22;39181;53.440;5.644;2022-08-25T15:57:49;30.50;98.90
53294;DHT22;39181;53.440;5.644;2022-08-25T16:00:16;30.40;98.80
53294;DHT22;39181;53.440;5.644;2022-08-25T16:02:42;30.40;99.40
53294;DHT22;39181;53.440;5.644;2022-08-25T16:05:09;30.30;99.00
53294;DHT22;39181;53.440;5.644;2022-08-25T16:07:36;30.30;98.30
53294;DHT22;39181;53.440;5.644;2022-08-25T16:10:03;30.20;98.00
53294;DHT22;39181;53.440;5.644;2022-08-25T16:12:29;30.20;97.90
53294;DHT22;39181;53.440;5.644;2022-08-25T16:14:55;30.10;97.90
53294;DHT22;39181;53.440;5.644;2022-08-25T16:17:21;30.10;98.40
53294;DHT22;39181;53.440;5.644;2022-08-25T16:19:47;30.10;98.80
53294;DHT22;39181;53.440;5.644;2022-08-25T16:22:13;30.10;98.60
53294;DHT22;39181;53.440;5.644;2022-08-25T16:24:40;30.10;99.10
53294;DHT22;39181;53.440;5.644;2022-08-25T16:27:09;30.00;99.00
53294;DHT22;39181;53.440;5.644;2022-08-25T16:29:36;30.00;98.70
53294;DHT22;39181;53.440;5.644;2022-08-25T16:32:04;30.10;99.00
53294;DHT22;39181;53.440;5.644;2022-08-25T16:34:30;30.00;99.00
53294;DHT22;39181;53.440;5.644;2022-08-25T16:36:56;29.90;98.70
53294;DHT22;39181;53.440;5.644;2022-08-25T16:39:22;29.90;98.80
53294;DHT22;39181;53.440;5.644;2022-08-25T16:41:48;29.90;99.40
53294;DHT22;39181;53.440;5.644;2022-08-25T16:44:15;29.90;99.90
53294;DHT22;39181;53.440;5.644;2022-08-25T16:46:41;29.70;99.90
53294;DHT22;39181;53.440;5.644;2022-08-25T16:49:08;29.70;99.90
53294;DHT22;39181;53.440;5.644;2022-08-25T16:51:36;29.70;99.90
53294;DHT22;39181;53.440;5.644;2022-08-25T16:54:02;29.50;99.90
53294;DHT22;39181;53.440;5.644;2022-08-25T16:56:46;29.40;99.90
53294;DHT22;39181;53.440;5.644;2022-08-25T16:59:12;29.30;99.90
53294;DHT22;39181;53.440;5.644;2022-08-25T17:01:39;29.30;99.90
53294;DHT22;39181;53.440;5.644;2022-08-25T17:04:05;29.20;99.90
53294;DHT22;39181;53.440;5.644;2022-08-25T17:06:39;29.10;99.90
53294;DHT22;39181;53.440;5.644;2022-08-25T17:09:07;29.00;99.90
53294;DHT22;39181;53.440;5.644;2022-08-25T17:11:35;29.00;99.90
53294;DHT22;39181;53.440;5.644;2022-08-25T17:14:02;28.90;99.90
53294;DHT22;39181;53.440;5.644;2022-08-25T17:16:31;28.80;99.90
53294;DHT22;39181;53.440;5.644;2022-08-25T17:19:00;28.80;99.90
53294;DHT22;39181;53.440;5.644;2022-08-25T17:21:29;28.70;99.90
53294;DHT22;39181;53.440;5.644;2022-08-25T17:23:56;28.60;99.90
53294;DHT22;39181;53.440;5.644;2022-08-25T17:26:23;28.50;99.90
53294;DHT22;39181;53.440;5.644;2022-08-25T17:28:49;28.40;99.90
53294;DHT22;39181;53.440;5.644;2022-08-25T17:31:16;28.20;99.90
53294;DHT22;39181;53.440;5.644;2022-08-25T17:33:42;28.10;99.90